createdAt,value
2024-01-30T00:00:45.096Z,3.28
2024-01-30T00:03:11.702Z,4.25
2024-01-30T00:05:38.368Z,3.95
2024-01-30T00:08:05.451Z,3.83
2024-01-30T00:10:32.172Z,3.22
2024-01-30T00:12:58.871Z,3.50
2024-01-30T00:15:26.894Z,3.63
2024-01-30T00:17:53.999Z,4.20
2024-01-30T00:20:21.960Z,3.83
2024-01-30T00:22:48.787Z,3.30
2024-01-30T00:25:15.806Z,3.40
2024-01-30T00:27:42.713Z,3.88
2024-01-30T00:30:10.089Z,3.55
2024-01-30T00:32:38.154Z,3.42
2024-01-30T00:35:05.367Z,3.47
2024-01-30T00:37:32.965Z,3.97
2024-01-30T00:40:00.092Z,3.63
2024-01-30T00:42:27.395Z,3.60
2024-01-30T00:44:54.059Z,3.67
2024-01-30T00:47:20.761Z,3.55
2024-01-30T00:49:48.981Z,3.30
2024-01-30T00:52:15.852Z,3.40
2024-01-30T00:54:42.584Z,3.28
2024-01-30T00:57:09.348Z,3.50
2024-01-30T00:59:35.995Z,3.83
2024-01-30T01:02:02.942Z,4.10
2024-01-30T01:04:29.664Z,4.45
2024-01-30T01:06:57.860Z,5.40
2024-01-30T01:09:24.622Z,5.15
2024-01-30T01:11:51.274Z,5.15
2024-01-30T01:14:17.935Z,5.63
2024-01-30T01:16:44.760Z,4.35
2024-01-30T01:19:11.558Z,5.63
2024-01-30T01:21:38.889Z,4.78
2024-01-30T01:24:07.675Z,3.83
2024-01-30T01:26:34.465Z,3.53
2024-01-30T01:29:01.065Z,3.65
2024-01-30T01:31:30.920Z,3.90
2024-01-30T01:33:58.009Z,4.72
2024-01-30T01:36:24.875Z,4.78
2024-01-30T01:38:51.599Z,3.75
2024-01-30T01:41:19.984Z,4.57
2024-01-30T01:43:46.800Z,5.10
2024-01-30T01:46:13.680Z,5.80
2024-01-30T01:48:41.358Z,6.10
2024-01-30T01:51:08.701Z,6.85
2024-01-30T01:53:35.334Z,5.05
2024-01-30T01:56:02.215Z,5.10
2024-01-30T01:58:30.779Z,4.57
2024-01-30T02:00:57.820Z,5.15
2024-01-30T02:03:24.524Z,4.40
2024-01-30T02:05:51.839Z,5.30
2024-01-30T02:08:18.542Z,5.10
2024-01-30T02:10:45.240Z,5.45
2024-01-30T02:13:11.986Z,4.72
2024-01-30T02:15:40.150Z,4.88
2024-01-30T02:18:06.888Z,4.43
2024-01-30T02:20:35.928Z,4.95
2024-01-30T02:23:05.143Z,5.38
2024-01-30T02:25:33.176Z,6.32
2024-01-30T02:28:00.051Z,6.82
2024-01-30T02:30:26.812Z,6.90
2024-01-30T02:32:53.464Z,7.40
2024-01-30T02:35:20.265Z,8.65
2024-01-30T02:37:46.928Z,6.15
2024-01-30T02:40:15.181Z,5.80
2024-01-30T02:42:43.025Z,6.70
2024-01-30T02:45:10.769Z,6.35
2024-01-30T02:47:37.506Z,6.28
2024-01-30T02:50:04.592Z,6.93
2024-01-30T02:52:31.486Z,7.38
2024-01-30T02:54:58.301Z,6.93
2024-01-30T02:57:26.721Z,6.38
2024-01-30T02:59:53.372Z,6.75
2024-01-30T03:02:23.191Z,7.15
2024-01-30T03:04:49.956Z,6.53
2024-01-30T03:07:16.728Z,7.25
2024-01-30T03:09:45.168Z,5.05
2024-01-30T03:12:11.848Z,7.30
2024-01-30T03:14:39.912Z,6.60
2024-01-30T03:17:06.701Z,8.15
2024-01-30T03:19:33.439Z,7.30
2024-01-30T03:22:03.148Z,7.32
2024-01-30T03:24:29.923Z,7.65
2024-01-30T03:26:56.557Z,7.22
2024-01-30T03:29:23.236Z,7.30
2024-01-30T03:31:51.396Z,5.95
2024-01-30T03:34:18.068Z,8.38
2024-01-30T03:36:44.814Z,7.57
2024-01-30T03:39:11.531Z,5.68
2024-01-30T03:41:38.420Z,5.72
2024-01-30T03:44:04.996Z,6.35
2024-01-30T03:46:31.684Z,6.15
2024-01-30T03:48:59.762Z,6.45
2024-01-30T03:51:26.464Z,5.32
2024-01-30T03:53:53.147Z,5.95
2024-01-30T03:56:19.836Z,7.07
2024-01-30T03:58:46.570Z,6.25
2024-01-30T04:01:14.558Z,5.97
2024-01-30T04:03:41.430Z,5.95
2024-01-30T04:06:10.050Z,6.00
2024-01-30T04:08:36.729Z,6.60
2024-01-30T04:11:07.152Z,6.63
2024-01-30T04:13:33.970Z,7.97
2024-01-30T04:16:02.649Z,6.45
2024-01-30T04:18:29.497Z,5.88
2024-01-30T04:20:56.555Z,6.47
2024-01-30T04:23:25.838Z,7.05
2024-01-30T04:25:52.534Z,7.93
2024-01-30T04:28:19.347Z,5.85
2024-01-30T04:30:46.142Z,7.78
2024-01-30T04:33:13.210Z,6.85
2024-01-30T04:35:41.209Z,5.22
2024-01-30T04:38:07.856Z,6.75
2024-01-30T04:40:35.878Z,6.82
2024-01-30T04:43:02.819Z,5.85
2024-01-30T04:45:29.478Z,7.45
2024-01-30T04:47:56.256Z,7.50
2024-01-30T04:50:23.037Z,7.93
2024-01-30T04:52:49.923Z,7.65
2024-01-30T04:55:17.248Z,8.30
2024-01-30T04:57:48.709Z,7.72
2024-01-30T05:00:16.258Z,6.97
2024-01-30T05:02:43.031Z,7.40
2024-01-30T05:05:09.969Z,7.82
2024-01-30T05:07:36.788Z,8.23
2024-01-30T05:10:05.981Z,7.82
2024-01-30T05:12:33.831Z,8.27
2024-01-30T05:15:05.881Z,7.30
2024-01-30T05:17:32.696Z,6.10
2024-01-30T05:19:59.593Z,7.50
2024-01-30T05:22:26.289Z,8.30
2024-01-30T05:24:53.055Z,8.50
2024-01-30T05:27:19.765Z,8.38
2024-01-30T05:29:48.740Z,8.15
2024-01-30T05:32:16.851Z,8.35
2024-01-30T05:34:43.544Z,8.27
2024-01-30T05:37:18.120Z,7.47
2024-01-30T05:39:44.970Z,7.70
2024-01-30T05:42:11.669Z,8.70
2024-01-30T05:44:38.388Z,8.70
2024-01-30T05:47:05.114Z,8.98
2024-01-30T05:49:37.707Z,8.10
2024-01-30T05:52:05.290Z,8.13
2024-01-30T05:54:31.985Z,7.80
2024-01-30T05:56:58.674Z,8.55
2024-01-30T05:59:25.561Z,8.95
2024-01-30T06:01:52.308Z,9.10
2024-01-30T06:04:21.057Z,8.77
2024-01-30T06:06:49.227Z,10.02
2024-01-30T06:09:16.077Z,7.70
2024-01-30T06:11:42.810Z,7.28
2024-01-30T06:14:09.863Z,8.25
2024-01-30T06:16:36.533Z,7.55
2024-01-30T06:19:03.301Z,6.90
2024-01-30T06:21:30.009Z,8.00
2024-01-30T06:23:58.057Z,7.38
2024-01-30T06:26:24.639Z,6.05
2024-01-30T06:28:51.398Z,8.18
2024-01-30T06:31:20.934Z,8.43
2024-01-30T06:33:57.338Z,8.40
2024-01-30T06:36:24.145Z,9.20
2024-01-30T06:38:50.944Z,9.52
2024-01-30T06:41:21.353Z,8.48
2024-01-30T06:43:48.248Z,9.50
2024-01-30T06:46:15.327Z,9.68
2024-01-30T06:48:44.468Z,8.13
2024-01-30T06:51:11.455Z,9.52
2024-01-30T06:53:38.860Z,8.48
2024-01-30T06:56:06.002Z,9.10
2024-01-30T06:58:34.239Z,7.13
2024-01-30T07:01:01.092Z,9.10
2024-01-30T07:03:28.310Z,8.48
2024-01-30T07:05:55.207Z,8.27
2024-01-30T07:08:21.989Z,8.73
2024-01-30T07:10:49.065Z,9.02
2024-01-30T07:13:17.783Z,8.20
2024-01-30T07:15:46.324Z,8.15
2024-01-30T07:18:15.012Z,7.85
2024-01-30T07:20:47.539Z,7.72
2024-01-30T07:23:15.293Z,7.93
2024-01-30T07:25:42.620Z,9.15
2024-01-30T07:28:11.152Z,9.20
2024-01-30T07:30:41.040Z,9.10
2024-01-30T07:33:09.971Z,9.35
2024-01-30T07:35:36.857Z,9.18
2024-01-30T07:38:03.689Z,7.78
2024-01-30T07:40:34.781Z,8.73
2024-01-30T07:43:02.251Z,9.48
2024-01-30T07:45:33.783Z,7.85
2024-01-30T07:48:03.449Z,8.88
2024-01-30T07:50:31.677Z,8.90
2024-01-30T07:52:58.530Z,8.57
2024-01-30T07:55:33.257Z,8.80
2024-01-30T07:58:03.229Z,8.55
2024-01-30T08:00:31.999Z,9.50
2024-01-30T08:02:59.901Z,7.72
2024-01-30T08:05:31.370Z,8.15
2024-01-30T08:08:02.600Z,7.45
2024-01-30T08:10:31.221Z,8.35
2024-01-30T08:12:58.372Z,6.30
2024-01-30T08:15:27.856Z,6.35
2024-01-30T08:17:59.045Z,6.72
2024-01-30T08:20:26.035Z,5.40
2024-01-30T08:22:55.164Z,5.10
2024-01-30T08:25:25.112Z,5.88
2024-01-30T08:27:59.352Z,6.25
2024-01-30T08:30:26.222Z,5.15
2024-01-30T08:32:53.200Z,5.07
2024-01-30T08:35:20.262Z,4.85
2024-01-30T08:37:46.897Z,4.97
2024-01-30T08:40:13.926Z,5.22
2024-01-30T08:42:41.922Z,6.50
2024-01-30T08:45:11.598Z,4.95
2024-01-30T08:47:38.458Z,5.70
2024-01-30T08:50:05.941Z,4.63
2024-01-30T08:52:32.758Z,5.95
2024-01-30T08:54:59.449Z,5.35
2024-01-30T08:57:32.471Z,5.82
2024-01-30T09:00:14.240Z,5.05
2024-01-30T09:02:47.057Z,6.75
2024-01-30T09:05:13.952Z,5.10
2024-01-30T09:07:41.084Z,5.63
2024-01-30T09:10:14.324Z,5.35
2024-01-30T09:12:41.841Z,4.75
2024-01-30T09:15:11.701Z,5.10
2024-01-30T09:17:38.611Z,5.20
2024-01-30T09:20:06.107Z,6.65
2024-01-30T09:22:33.026Z,5.13
2024-01-30T09:25:00.081Z,4.82
2024-01-30T09:27:27.367Z,6.07
2024-01-30T09:29:54.222Z,5.70
2024-01-30T09:32:22.371Z,7.20
2024-01-30T09:34:51.286Z,7.65
2024-01-30T09:37:22.885Z,6.78
2024-01-30T09:39:50.712Z,7.50
2024-01-30T09:42:19.822Z,6.10
2024-01-30T09:44:48.258Z,6.75
2024-01-30T09:47:16.242Z,6.40
2024-01-30T09:49:44.851Z,6.72
2024-01-30T09:52:12.197Z,7.85
2024-01-30T09:54:42.016Z,5.43
2024-01-30T09:57:10.905Z,6.35
2024-01-30T09:59:37.696Z,6.25
2024-01-30T10:02:05.882Z,6.30
2024-01-30T10:04:32.988Z,8.48
2024-01-30T10:07:02.901Z,7.07
2024-01-30T10:09:35.932Z,6.43
2024-01-30T10:12:07.462Z,6.93
2024-01-30T10:14:34.387Z,6.63
2024-01-30T10:17:09.273Z,6.47
2024-01-30T10:22:08.740Z,5.22
2024-01-30T10:24:38.177Z,6.00
2024-01-30T10:27:06.907Z,5.30
2024-01-30T10:29:33.681Z,5.55
2024-01-30T10:32:01.037Z,5.10
2024-01-30T10:34:27.841Z,5.22
2024-01-30T10:37:00.448Z,5.10
2024-01-30T10:39:30.564Z,4.57
2024-01-30T10:41:57.382Z,4.53
2024-01-30T10:44:24.171Z,6.45
2024-01-30T10:46:55.418Z,4.80
2024-01-30T10:49:22.873Z,3.90
2024-01-30T10:51:50.323Z,3.78
2024-01-30T10:54:18.828Z,4.20
2024-01-30T10:56:47.490Z,4.90
2024-01-30T10:59:14.740Z,4.35
2024-01-30T11:01:41.980Z,4.65
2024-01-30T11:04:09.433Z,5.47
2024-01-30T11:06:48.513Z,5.30
2024-01-30T11:09:21.541Z,5.00
2024-01-30T11:11:50.884Z,4.55
2024-01-30T11:14:17.931Z,5.53
2024-01-30T11:16:46.685Z,4.78
2024-01-30T11:19:13.762Z,3.97
2024-01-30T11:21:42.728Z,3.97
2024-01-30T11:24:14.866Z,3.83
2024-01-30T11:26:50.393Z,3.70
2024-01-30T11:29:21.974Z,3.70
2024-01-30T11:31:54.994Z,3.20
2024-01-30T11:34:22.243Z,3.15
2024-01-30T11:36:55.445Z,4.78
2024-01-30T11:39:24.645Z,3.85
2024-01-30T11:41:52.219Z,3.30
2024-01-30T11:44:21.937Z,3.90
2024-01-30T11:46:48.971Z,3.22
2024-01-30T11:49:15.815Z,3.10
2024-01-30T11:51:42.942Z,3.63
2024-01-30T11:54:09.939Z,3.45
2024-01-30T11:56:37.869Z,3.20
2024-01-30T11:59:04.854Z,3.22
2024-01-30T12:01:35.584Z,2.80
2024-01-30T12:04:02.409Z,3.13
2024-01-30T12:06:29.363Z,2.90
2024-01-30T12:08:57.594Z,3.63
2024-01-30T12:11:27.752Z,3.30
2024-01-30T12:13:57.898Z,2.97
2024-01-30T12:16:24.821Z,3.38
2024-01-30T12:19:04.498Z,2.88
2024-01-30T12:21:31.878Z,3.40
2024-01-30T12:23:59.166Z,3.25
2024-01-30T12:26:28.765Z,2.83
2024-01-30T12:28:56.331Z,2.70
2024-01-30T12:31:27.117Z,3.10
2024-01-30T12:33:57.739Z,3.03
2024-01-30T12:36:26.382Z,3.20
2024-01-30T12:38:54.820Z,3.13
2024-01-30T12:41:21.618Z,3.67
2024-01-30T12:43:49.231Z,3.00
2024-01-30T12:46:18.469Z,3.38
2024-01-30T12:48:46.492Z,4.07
2024-01-30T12:51:21.739Z,3.22
2024-01-30T12:53:49.523Z,3.30
2024-01-30T12:56:17.102Z,3.40
2024-01-30T12:58:54.916Z,4.13
2024-01-30T13:01:22.629Z,4.60
2024-01-30T13:03:49.825Z,4.15
2024-01-30T13:06:24.105Z,3.63
2024-01-30T13:08:51.036Z,3.53
2024-01-30T13:11:21.488Z,3.38
2024-01-30T13:13:48.821Z,5.00
2024-01-30T13:16:15.861Z,3.97
2024-01-30T13:18:43.080Z,7.43
2024-01-30T13:21:09.777Z,5.28
2024-01-30T13:23:37.803Z,4.80
2024-01-30T13:26:04.625Z,4.30
2024-01-30T13:28:31.581Z,5.20
2024-01-30T13:30:59.730Z,3.78
2024-01-30T13:33:32.621Z,5.07
2024-01-30T13:36:00.061Z,3.88
2024-01-30T13:38:26.727Z,4.18
2024-01-30T13:40:57.460Z,4.57
2024-01-30T13:43:24.350Z,3.78
2024-01-30T13:45:51.341Z,4.80
2024-01-30T13:48:18.302Z,5.07
2024-01-30T13:50:45.009Z,5.57
2024-01-30T13:53:12.653Z,4.30
2024-01-30T13:55:41.437Z,4.38
2024-01-30T13:58:09.572Z,4.13
2024-01-30T14:00:37.973Z,4.13
2024-01-30T14:03:05.079Z,3.97
2024-01-30T14:05:31.953Z,3.97
2024-01-30T14:08:01.131Z,3.85
2024-01-30T14:10:28.029Z,4.85
2024-01-30T14:12:57.894Z,3.80
2024-01-30T14:15:29.074Z,3.92
2024-01-30T14:17:59.576Z,4.38
2024-01-30T14:20:27.124Z,4.05
2024-01-30T14:22:56.918Z,4.30
2024-01-30T14:25:27.416Z,4.28
2024-01-30T14:27:54.338Z,4.00
2024-01-30T14:30:21.170Z,4.13
2024-01-30T14:32:52.216Z,4.00
2024-01-30T14:35:22.162Z,3.90
2024-01-30T14:37:49.869Z,4.32
2024-01-30T14:40:16.618Z,3.65
2024-01-30T14:42:45.925Z,3.92
2024-01-30T14:45:12.873Z,3.95
2024-01-30T14:47:39.976Z,3.58
2024-01-30T14:50:09.345Z,3.83
2024-01-30T14:52:37.758Z,3.80
2024-01-30T14:55:05.028Z,4.03
2024-01-30T14:57:34.686Z,3.50
2024-01-30T15:00:01.602Z,4.07
2024-01-30T15:02:31.201Z,3.75
2024-01-30T15:04:57.959Z,3.72
2024-01-30T15:07:33.431Z,3.25
2024-01-30T15:10:07.936Z,3.35
2024-01-30T15:12:34.770Z,3.25
2024-01-30T15:15:05.199Z,4.03
2024-01-30T15:17:48.875Z,3.85
2024-01-30T15:20:16.860Z,3.80
2024-01-30T15:22:52.561Z,3.70
2024-01-30T15:25:19.245Z,4.07
2024-01-30T15:27:46.177Z,4.13
2024-01-30T15:30:13.194Z,4.60
2024-01-30T15:32:44.816Z,3.83
2024-01-30T15:35:11.518Z,3.45
2024-01-30T15:37:38.272Z,3.85
2024-01-30T15:40:10.186Z,4.30
2024-01-30T15:42:36.980Z,3.83
2024-01-30T15:45:03.944Z,3.30
2024-01-30T15:47:38.138Z,4.25
2024-01-30T15:50:05.445Z,4.07
2024-01-30T15:52:32.792Z,4.55
2024-01-30T15:55:00.236Z,5.05
2024-01-30T15:57:30.214Z,5.15
2024-01-30T15:59:57.374Z,5.18
2024-01-30T16:02:25.686Z,5.13
2024-01-30T16:04:54.755Z,5.88
2024-01-30T16:07:21.432Z,5.25
2024-01-30T16:09:49.657Z,4.90
2024-01-30T16:12:16.344Z,4.85
2024-01-30T16:14:44.368Z,5.10
2024-01-30T16:17:11.062Z,5.22
2024-01-30T16:19:37.941Z,5.10
2024-01-30T16:22:04.998Z,5.00
2024-01-30T16:24:31.706Z,4.78
2024-01-30T16:26:58.420Z,4.90
2024-01-30T16:29:25.188Z,5.00
2024-01-30T16:31:53.403Z,5.63
2024-01-30T16:34:20.176Z,4.93
2024-01-30T16:36:47.193Z,5.70
2024-01-30T16:39:14.781Z,5.22
2024-01-30T16:41:41.654Z,5.50
2024-01-30T16:44:10.157Z,5.07
2024-01-30T16:46:39.044Z,6.10
2024-01-30T16:49:07.174Z,5.55
2024-01-30T16:51:36.293Z,5.35
2024-01-30T16:54:02.970Z,5.10
2024-01-30T16:56:32.638Z,4.22
2024-01-30T16:59:01.156Z,4.65
2024-01-30T17:01:31.009Z,5.10
2024-01-30T17:03:58.159Z,4.65
2024-01-30T17:06:26.778Z,4.80
2024-01-30T17:08:53.628Z,4.97
2024-01-30T17:11:20.406Z,4.18
2024-01-30T17:13:47.210Z,4.90
2024-01-30T17:16:14.010Z,4.18
2024-01-30T17:18:40.723Z,4.15
2024-01-30T17:21:09.803Z,3.83
2024-01-30T17:23:38.588Z,4.13
2024-01-30T17:26:05.381Z,4.50
2024-01-30T17:28:32.349Z,5.00
2024-01-30T17:30:59.151Z,5.00
2024-01-30T17:33:25.998Z,5.55
2024-01-30T17:35:52.944Z,5.45
2024-01-30T17:38:20.350Z,5.10
2024-01-30T17:40:54.194Z,4.65
2024-01-30T17:43:26.989Z,4.38
2024-01-30T17:45:56.456Z,3.95
2024-01-30T17:48:23.308Z,3.45
2024-01-30T17:50:50.145Z,4.82
2024-01-30T17:53:16.735Z,4.25
2024-01-30T17:55:43.498Z,4.00
2024-01-30T17:58:11.823Z,4.35
2024-01-30T18:00:38.818Z,4.80
2024-01-30T18:03:05.972Z,4.40
2024-01-30T18:05:33.985Z,4.75
2024-01-30T18:08:00.851Z,4.38
2024-01-30T18:10:27.636Z,4.68
2024-01-30T18:12:55.389Z,3.75
2024-01-30T18:15:23.480Z,4.18
2024-01-30T18:17:50.322Z,4.28
2024-01-30T18:20:17.294Z,4.22
2024-01-30T18:22:46.094Z,3.95
2024-01-30T18:25:15.947Z,4.07
2024-01-30T18:27:44.640Z,3.58
2024-01-30T18:30:12.253Z,3.50
2024-01-30T18:32:40.270Z,4.57
2024-01-30T18:35:09.642Z,4.25
2024-01-30T18:37:37.146Z,4.53
2024-01-30T18:40:04.289Z,4.43
2024-01-30T18:42:30.910Z,3.83
2024-01-30T18:44:57.696Z,3.58
2024-01-30T18:47:27.100Z,3.88
2024-01-30T18:49:56.472Z,4.43
2024-01-30T18:52:27.217Z,3.97
2024-01-30T18:54:54.070Z,3.60
2024-01-30T18:57:20.792Z,4.47
2024-01-30T18:59:48.613Z,4.05
2024-01-30T19:02:15.890Z,3.60
2024-01-30T19:04:43.247Z,4.80
2024-01-30T19:07:11.846Z,4.93
2024-01-30T19:09:39.111Z,5.45
2024-01-30T19:12:06.112Z,6.70
2024-01-30T19:14:34.412Z,5.88
2024-01-30T19:17:01.063Z,5.30
2024-01-30T19:19:27.857Z,5.03
2024-01-30T19:21:54.546Z,5.45
2024-01-30T19:24:25.737Z,5.80
2024-01-30T19:26:53.429Z,5.32
2024-01-30T19:29:22.978Z,5.25
2024-01-30T19:31:50.046Z,6.10
2024-01-30T19:34:16.980Z,5.97
2024-01-30T19:36:43.684Z,5.72
2024-01-30T19:39:14.426Z,4.55
2024-01-30T19:41:45.017Z,5.45
2024-01-30T19:44:12.068Z,5.75
2024-01-30T19:46:38.681Z,5.10
2024-01-30T19:49:05.431Z,5.40
2024-01-30T19:51:32.164Z,5.72
2024-01-30T19:54:00.408Z,5.13
2024-01-30T19:56:27.185Z,5.50
2024-01-30T19:58:55.215Z,5.43
2024-01-30T20:01:22.012Z,6.45
2024-01-30T20:03:48.920Z,5.32
2024-01-30T20:06:15.778Z,5.65
2024-01-30T20:08:42.440Z,6.38
2024-01-30T20:11:16.084Z,6.90
2024-01-30T20:13:42.921Z,6.88
2024-01-30T20:16:11.108Z,8.55
2024-01-30T20:18:38.092Z,7.97
2024-01-30T20:21:05.128Z,11.10
2024-01-30T20:23:33.100Z,10.10
2024-01-30T20:25:59.933Z,10.27
2024-01-30T20:28:27.875Z,9.65
2024-01-30T20:30:56.556Z,10.40
2024-01-30T20:33:27.833Z,9.63
2024-01-30T20:35:54.511Z,9.75
2024-01-30T20:38:21.183Z,8.73
2024-01-30T20:40:47.870Z,8.73
2024-01-30T20:43:14.575Z,11.82
2024-01-30T20:45:41.285Z,8.50
2024-01-30T20:48:08.851Z,8.52
2024-01-30T20:50:36.880Z,11.02
2024-01-30T20:53:03.552Z,12.38
2024-01-30T20:55:30.228Z,11.00
2024-01-30T20:57:56.933Z,10.60
2024-01-30T21:00:23.611Z,9.32
2024-01-30T21:02:50.322Z,8.30
2024-01-30T21:05:20.148Z,10.65
2024-01-30T21:07:48.186Z,10.50
2024-01-30T21:10:15.144Z,12.65
2024-01-30T21:12:41.788Z,12.60
2024-01-30T21:15:09.014Z,15.70
2024-01-30T21:17:35.770Z,16.60
2024-01-30T21:20:02.640Z,15.50
2024-01-30T21:22:29.355Z,13.13
2024-01-30T21:24:57.410Z,13.93
2024-01-30T21:27:24.108Z,14.48
2024-01-30T21:29:50.703Z,15.93
2024-01-30T21:32:17.417Z,13.93
2024-01-30T21:34:44.368Z,15.32
2024-01-30T21:37:11.169Z,17.00
2024-01-30T21:39:38.690Z,16.05
2024-01-30T21:42:06.862Z,17.95
2024-01-30T21:44:33.766Z,19.83
2024-01-30T21:47:00.503Z,19.27
2024-01-30T21:49:27.214Z,17.10
2024-01-30T21:51:55.005Z,18.77
2024-01-30T21:54:21.663Z,19.55
2024-01-30T21:56:48.292Z,13.77
2024-01-30T21:59:16.449Z,19.30
2024-01-30T22:01:43.250Z,19.30
2024-01-30T22:04:10.068Z,18.88
2024-01-30T22:06:39.931Z,17.60
2024-01-30T22:09:06.751Z,20.05
2024-01-30T22:11:33.550Z,19.63
2024-01-30T22:14:01.280Z,18.80
2024-01-30T22:16:29.340Z,19.70
2024-01-30T22:18:56.151Z,19.15
2024-01-30T22:21:23.096Z,18.83
2024-01-30T22:23:49.977Z,19.13
2024-01-30T22:26:16.834Z,19.15
2024-01-30T22:28:43.605Z,20.25
2024-01-30T22:31:10.503Z,17.48
2024-01-30T22:33:38.547Z,18.60
2024-01-30T22:36:05.620Z,16.13
2024-01-30T22:38:32.767Z,16.45
2024-01-30T22:40:59.552Z,18.27
2024-01-30T22:43:27.019Z,20.35
2024-01-30T22:45:53.683Z,20.73
2024-01-30T22:48:20.447Z,21.75
2024-01-30T22:50:48.612Z,15.30
2024-01-30T22:53:15.305Z,16.50
2024-01-30T22:55:42.185Z,18.33
2024-01-30T22:58:08.972Z,13.13
2024-01-30T23:00:35.729Z,17.90
2024-01-30T23:03:03.499Z,17.60
2024-01-30T23:05:31.439Z,17.58
2024-01-30T23:07:59.495Z,13.60
2024-01-30T23:10:26.236Z,17.17
2024-01-30T23:12:52.951Z,15.63
2024-01-30T23:15:19.545Z,16.77
2024-01-30T23:17:46.339Z,17.63
2024-01-30T23:20:13.508Z,15.20
2024-01-30T23:22:40.455Z,13.52
2024-01-30T23:25:08.918Z,15.35
2024-01-30T23:27:35.705Z,14.95
2024-01-30T23:30:03.163Z,14.05
2024-01-30T23:32:35.072Z,14.65
2024-01-30T23:35:07.301Z,15.88
2024-01-30T23:37:34.461Z,16.45
2024-01-30T23:40:01.222Z,17.77
2024-01-30T23:42:29.415Z,18.13
2024-01-30T23:44:56.228Z,15.63
2024-01-30T23:47:22.906Z,14.07
2024-01-30T23:49:49.647Z,17.23
2024-01-30T23:52:16.439Z,12.15
2024-01-30T23:54:43.184Z,14.98
2024-01-30T23:57:09.785Z,16.75
2024-01-30T23:59:37.924Z,15.10
